createdAt,value
2019-01-29T00:01:03.136Z,1.70
2019-01-29T00:03:31.866Z,1.70
2019-01-29T00:06:00.671Z,1.60
2019-01-29T00:08:29.438Z,1.70
2019-01-29T00:10:58.221Z,1.70
2019-01-29T00:13:27.013Z,1.60
2019-01-29T00:15:55.767Z,1.70
2019-01-29T00:18:24.565Z,1.60
2019-01-29T00:20:53.373Z,1.60
2019-01-29T00:23:22.356Z,1.50
2019-01-29T00:25:51.480Z,1.50
2019-01-29T00:28:20.457Z,1.50
2019-01-29T00:30:49.492Z,1.40
2019-01-29T00:33:18.247Z,1.40
2019-01-29T00:35:47.995Z,1.30
2019-01-29T00:38:17.081Z,1.30
2019-01-29T00:40:45.911Z,1.30
2019-01-29T00:43:14.688Z,1.30
2019-01-29T00:45:43.505Z,1.30
2019-01-29T00:48:12.430Z,1.30
2019-01-29T00:50:41.257Z,1.20
2019-01-29T00:53:09.985Z,1.20
2019-01-29T00:55:39.113Z,1.20
2019-01-29T00:58:08.237Z,1.10
2019-01-29T01:00:37.020Z,1.10
2019-01-29T01:03:05.960Z,1.20
2019-01-29T01:05:34.789Z,1.30
2019-01-29T01:08:04.070Z,1.30
2019-01-29T01:10:32.974Z,1.30
2019-01-29T01:13:01.705Z,1.40
2019-01-29T01:15:30.521Z,1.40
2019-01-29T01:17:59.246Z,1.30
2019-01-29T01:20:28.056Z,1.40
2019-01-29T01:22:56.803Z,1.30
2019-01-29T01:25:25.546Z,1.30
2019-01-29T01:27:54.265Z,1.40
2019-01-29T01:30:23.086Z,1.40
2019-01-29T01:32:51.833Z,1.40
2019-01-29T01:35:20.563Z,1.40
2019-01-29T01:37:49.426Z,1.40
2019-01-29T01:40:20.744Z,1.40
2019-01-29T01:42:49.690Z,1.30
2019-01-29T01:45:18.953Z,1.30
2019-01-29T01:47:48.117Z,1.30
2019-01-29T01:50:17.408Z,1.30
2019-01-29T01:52:46.232Z,1.40
2019-01-29T01:55:17.043Z,1.30
2019-01-29T01:57:46.228Z,1.30
2019-01-29T02:00:17.193Z,1.30
2019-01-29T02:02:46.001Z,1.20
2019-01-29T02:05:14.911Z,1.20
2019-01-29T02:07:44.228Z,1.10
2019-01-29T02:10:18.778Z,1.10
2019-01-29T02:12:47.534Z,1.10
2019-01-29T02:15:16.428Z,1.10
2019-01-29T02:17:45.280Z,1.10
2019-01-29T02:20:14.312Z,1.10
2019-01-29T02:22:43.073Z,1.10
2019-01-29T02:25:11.936Z,1.10
2019-01-29T02:27:40.689Z,1.10
2019-01-29T02:30:12.897Z,1.10
2019-01-29T02:32:41.777Z,1.10
2019-01-29T02:35:10.731Z,1.10
2019-01-29T02:37:39.640Z,1.10
2019-01-29T02:40:11.703Z,1.20
2019-01-29T02:42:40.713Z,1.10
2019-01-29T02:45:10.842Z,1.10
2019-01-29T02:47:39.996Z,1.00
2019-01-29T02:50:09.748Z,1.00
2019-01-29T02:52:38.495Z,1.00
2019-01-29T02:55:08.450Z,1.00
2019-01-29T02:57:37.543Z,1.00
2019-01-29T03:00:10.380Z,0.90
2019-01-29T03:02:39.434Z,0.90
2019-01-29T03:05:09.308Z,0.90
2019-01-29T03:07:38.279Z,0.90
2019-01-29T03:10:09.257Z,0.90
2019-01-29T03:12:38.522Z,0.90
2019-01-29T03:15:09.692Z,1.00
2019-01-29T03:17:38.860Z,0.90
2019-01-29T03:20:08.865Z,0.80
2019-01-29T03:22:38.172Z,0.80
2019-01-29T03:25:08.121Z,0.70
2019-01-29T03:27:37.210Z,0.70
2019-01-29T03:30:07.147Z,0.70
2019-01-29T03:32:35.921Z,0.60
2019-01-29T03:35:05.830Z,0.60
2019-01-29T03:37:34.812Z,0.70
2019-01-29T03:40:05.236Z,0.60
2019-01-29T03:42:34.017Z,0.60
2019-01-29T03:45:02.835Z,0.50
2019-01-29T03:47:31.791Z,0.50
2019-01-29T03:50:00.637Z,0.50
2019-01-29T03:52:29.668Z,0.60
2019-01-29T03:54:58.414Z,0.50
2019-01-29T03:57:27.291Z,0.40
2019-01-29T04:00:19.609Z,0.40
2019-01-29T04:02:48.550Z,0.40
2019-01-29T04:05:17.527Z,0.20
2019-01-29T04:07:46.703Z,0.30
2019-01-29T04:10:16.648Z,0.20
2019-01-29T04:12:45.889Z,0.20
2019-01-29T04:15:17.007Z,0.10
2019-01-29T04:17:46.037Z,0.10
2019-01-29T04:20:17.335Z,0.10
2019-01-29T04:22:46.466Z,0.00
2019-01-29T04:25:15.666Z,0.10
2019-01-29T04:27:44.492Z,0.10
2019-01-29T04:30:15.654Z,0.10
2019-01-29T04:32:44.544Z,0.00
2019-01-29T04:35:13.352Z,0.00
2019-01-29T04:37:42.202Z,0.10
2019-01-29T04:40:12.401Z,0.00
2019-01-29T04:42:41.265Z,0.00
2019-01-29T04:45:11.510Z,0.00
2019-01-29T04:47:40.421Z,0.00
2019-01-29T04:50:11.152Z,0.00
2019-01-29T04:52:40.404Z,-0.10
2019-01-29T04:55:10.455Z,-0.10
2019-01-29T04:57:39.634Z,-0.10
2019-01-29T05:00:12.221Z,-0.10
2019-01-29T05:02:41.154Z,-0.10
2019-01-29T05:05:11.056Z,-0.20
2019-01-29T05:07:40.236Z,-0.30
2019-01-29T05:10:10.624Z,-0.40
2019-01-29T05:12:39.388Z,-0.40
2019-01-29T05:15:10.384Z,-0.30
2019-01-29T05:17:39.268Z,-0.20
2019-01-29T05:20:10.276Z,-0.20
2019-01-29T05:22:39.022Z,-0.30
2019-01-29T05:25:07.944Z,-0.30
2019-01-29T05:27:36.704Z,-0.30
2019-01-29T05:30:08.334Z,-0.40
2019-01-29T05:32:37.145Z,-0.40
2019-01-29T05:35:07.108Z,-0.50
2019-01-29T05:37:35.862Z,-0.60
2019-01-29T05:40:05.747Z,-0.60
2019-01-29T05:42:34.918Z,-0.60
2019-01-29T05:45:03.880Z,-0.60
2019-01-29T05:47:32.998Z,-0.60
2019-01-29T05:50:01.863Z,-0.60
2019-01-29T05:52:30.604Z,-0.60
2019-01-29T05:54:59.388Z,-0.60
2019-01-29T05:57:28.155Z,-0.60
2019-01-29T05:59:56.913Z,-0.60
2019-01-29T06:02:25.820Z,-0.70
2019-01-29T06:04:54.597Z,-0.60
2019-01-29T06:07:23.335Z,-0.60
2019-01-29T06:09:52.389Z,-0.60
2019-01-29T06:12:21.363Z,-0.60
2019-01-29T06:14:50.471Z,-0.60
2019-01-29T06:17:27.371Z,-0.50
2019-01-29T06:19:50.035Z,-0.40
2019-01-29T06:22:18.817Z,-0.30
2019-01-29T06:24:47.661Z,-0.20
2019-01-29T06:27:16.661Z,-0.30
2019-01-29T06:29:45.500Z,-0.30
2019-01-29T06:32:14.649Z,-0.30
2019-01-29T06:34:43.483Z,-0.30
2019-01-29T06:37:12.553Z,-0.40
2019-01-29T06:39:41.313Z,-0.40
2019-01-29T06:42:10.236Z,-0.30
2019-01-29T06:44:39.063Z,-0.30
2019-01-29T06:47:07.859Z,-0.30
2019-01-29T06:49:36.716Z,-0.30
2019-01-29T06:52:05.744Z,-0.30
2019-01-29T06:54:34.750Z,-0.30
2019-01-29T06:57:03.519Z,-0.30
2019-01-29T06:59:32.297Z,-0.40
2019-01-29T07:02:01.138Z,-0.40
2019-01-29T07:04:30.000Z,-0.40
2019-01-29T07:06:59.161Z,-0.40
2019-01-29T07:09:27.995Z,-0.40
2019-01-29T07:12:03.306Z,-0.50
2019-01-29T07:14:32.316Z,-0.50
2019-01-29T07:17:13.713Z,-0.40
2019-01-29T07:19:48.553Z,-0.50
2019-01-29T07:22:17.341Z,-0.40
2019-01-29T07:24:46.535Z,-0.30
2019-01-29T07:27:15.644Z,-0.30
2019-01-29T07:29:44.402Z,-0.30
2019-01-29T07:32:13.254Z,-0.50
2019-01-29T07:34:42.158Z,-0.50
2019-01-29T07:37:10.967Z,-0.50
2019-01-29T07:39:39.768Z,-0.60
2019-01-29T07:42:08.870Z,-0.70
2019-01-29T07:44:37.698Z,-0.60
2019-01-29T07:47:06.607Z,-0.60
2019-01-29T07:49:35.593Z,-0.50
2019-01-29T07:52:04.841Z,-0.40
2019-01-29T07:54:33.797Z,-0.40
2019-01-29T07:57:02.552Z,-0.30
2019-01-29T07:59:33.079Z,-0.20
2019-01-29T08:02:02.095Z,-0.10
2019-01-29T08:04:30.919Z,0.00
2019-01-29T08:06:59.737Z,0.00
2019-01-29T08:09:28.561Z,0.00
2019-01-29T08:11:57.370Z,0.00
2019-01-29T08:14:26.233Z,0.00
2019-01-29T08:16:54.972Z,0.10
2019-01-29T08:19:23.742Z,0.20
2019-01-29T08:21:52.910Z,0.20
2019-01-29T08:24:21.764Z,0.30
2019-01-29T08:26:50.639Z,0.40
2019-01-29T08:29:19.485Z,0.60
2019-01-29T08:31:48.553Z,0.70
2019-01-29T08:34:17.426Z,0.80
2019-01-29T08:36:46.247Z,0.90
2019-01-29T08:39:15.068Z,1.00
2019-01-29T08:41:43.818Z,1.00
2019-01-29T08:44:12.568Z,1.10
2019-01-29T08:46:41.844Z,1.10
2019-01-29T08:49:10.772Z,1.10
2019-01-29T08:51:39.506Z,1.20
2019-01-29T08:54:08.335Z,1.20
2019-01-29T08:56:37.164Z,1.20
2019-01-29T08:59:06.421Z,1.30
2019-01-29T09:01:35.536Z,1.30
2019-01-29T09:04:04.553Z,1.40
2019-01-29T09:06:33.324Z,1.40
2019-01-29T09:09:02.411Z,1.50
2019-01-29T09:11:31.211Z,1.50
2019-01-29T09:14:00.418Z,1.50
2019-01-29T09:16:29.168Z,1.60
2019-01-29T09:18:57.928Z,1.60
2019-01-29T09:21:26.704Z,1.60
2019-01-29T09:23:55.929Z,1.60
2019-01-29T09:26:25.041Z,1.70
2019-01-29T09:28:53.799Z,1.70
2019-01-29T09:31:22.608Z,1.70
2019-01-29T09:33:51.473Z,1.80
2019-01-29T09:36:20.244Z,1.80
2019-01-29T09:38:49.219Z,1.80
2019-01-29T09:41:17.955Z,1.90
2019-01-29T09:43:46.804Z,1.90
2019-01-29T09:46:15.861Z,2.00
2019-01-29T09:48:45.553Z,2.00
2019-01-29T09:51:14.625Z,2.10
2019-01-29T09:53:43.712Z,2.10
2019-01-29T09:56:13.019Z,2.10
2019-01-29T09:58:42.224Z,2.00
2019-01-29T10:01:11.068Z,2.00
2019-01-29T10:03:40.095Z,2.10
2019-01-29T10:06:09.500Z,2.10
2019-01-29T10:08:38.485Z,2.10
2019-01-29T10:11:07.627Z,2.20
2019-01-29T10:13:36.658Z,2.20
2019-01-29T10:16:05.512Z,2.20
2019-01-29T10:18:34.271Z,2.30
2019-01-29T10:21:03.147Z,2.40
2019-01-29T10:23:31.994Z,2.40
2019-01-29T10:26:00.756Z,2.50
2019-01-29T10:28:29.515Z,2.50
2019-01-29T10:30:58.613Z,2.60
2019-01-29T10:33:27.366Z,2.60
2019-01-29T10:35:56.317Z,2.60
2019-01-29T10:38:25.087Z,2.60
2019-01-29T10:40:53.930Z,2.60
2019-01-29T10:43:22.700Z,2.70
2019-01-29T10:45:51.543Z,2.80
2019-01-29T10:48:20.449Z,2.80
2019-01-29T10:50:49.450Z,2.80
2019-01-29T10:53:18.192Z,2.80
2019-01-29T10:55:47.762Z,2.90
2019-01-29T10:58:16.652Z,2.90
2019-01-29T11:00:46.104Z,3.10
2019-01-29T11:03:15.084Z,3.20
2019-01-29T11:05:43.867Z,3.30
2019-01-29T11:08:13.085Z,3.30
2019-01-29T11:10:42.387Z,3.40
2019-01-29T11:13:11.146Z,3.40
2019-01-29T11:15:41.727Z,3.40
2019-01-29T11:18:13.404Z,3.40
2019-01-29T11:20:42.407Z,3.50
2019-01-29T11:23:11.239Z,3.60
2019-01-29T11:25:40.310Z,3.60
2019-01-29T11:28:09.220Z,3.60
2019-01-29T11:30:38.175Z,3.60
2019-01-29T11:33:07.680Z,3.70
2019-01-29T11:35:36.620Z,3.80
2019-01-29T11:38:05.539Z,3.80
2019-01-29T11:40:35.207Z,3.90
2019-01-29T11:43:05.212Z,3.90
2019-01-29T11:45:39.858Z,4.00
2019-01-29T11:48:09.068Z,4.10
2019-01-29T11:50:37.970Z,4.40
2019-01-29T11:53:07.188Z,4.60
2019-01-29T11:55:36.332Z,4.70
2019-01-29T11:58:05.790Z,4.80
2019-01-29T12:00:38.240Z,4.80
2019-01-29T12:03:07.224Z,4.80
2019-01-29T12:05:36.130Z,4.80
2019-01-29T12:08:06.036Z,4.70
2019-01-29T12:10:34.877Z,4.80
2019-01-29T12:13:04.180Z,4.90
2019-01-29T12:15:33.325Z,4.90
2019-01-29T12:18:03.247Z,4.90
2019-01-29T12:20:32.157Z,4.80
2019-01-29T12:23:01.067Z,4.60
2019-01-29T12:25:29.936Z,4.40
2019-01-29T12:27:59.401Z,4.40
2019-01-29T12:30:28.691Z,4.40
2019-01-29T12:32:58.166Z,4.40
2019-01-29T12:35:29.728Z,4.40
2019-01-29T12:37:58.775Z,4.50
2019-01-29T12:40:27.592Z,4.40
2019-01-29T12:42:56.429Z,4.40
2019-01-29T12:45:25.701Z,4.50
2019-01-29T12:47:54.807Z,4.50
2019-01-29T12:50:24.461Z,4.60
2019-01-29T12:53:12.321Z,4.60
2019-01-29T12:55:41.270Z,4.60
2019-01-29T12:58:10.124Z,4.60
2019-01-29T13:00:52.067Z,4.50
2019-01-29T13:03:21.864Z,4.50
2019-01-29T13:05:50.612Z,4.50
2019-01-29T13:08:19.568Z,4.60
2019-01-29T13:10:48.477Z,4.60
2019-01-29T13:13:17.472Z,4.60
2019-01-29T13:15:46.368Z,4.60
2019-01-29T13:18:15.309Z,4.60
2019-01-29T13:20:44.270Z,4.50
2019-01-29T13:23:13.252Z,4.50
2019-01-29T13:25:42.430Z,4.50
2019-01-29T13:28:11.286Z,4.60
2019-01-29T13:30:40.128Z,4.50
2019-01-29T13:33:14.191Z,4.60
2019-01-29T13:35:43.541Z,4.60
2019-01-29T13:38:12.588Z,4.70
2019-01-29T13:40:41.790Z,4.60
2019-01-29T13:43:10.720Z,4.60
2019-01-29T13:45:40.675Z,4.60
2019-01-29T13:48:09.519Z,4.50
2019-01-29T13:50:51.557Z,4.50
2019-01-29T13:53:20.326Z,4.50
2019-01-29T13:55:49.178Z,4.50
2019-01-29T13:58:18.073Z,4.60
2019-01-29T14:00:47.159Z,4.60
2019-01-29T14:03:15.988Z,4.60
2019-01-29T14:05:44.828Z,4.70
2019-01-29T14:08:14.384Z,4.70
2019-01-29T14:10:43.206Z,4.80
2019-01-29T14:13:12.448Z,4.80
2019-01-29T14:15:46.664Z,4.70
2019-01-29T14:18:16.221Z,4.70
2019-01-29T14:20:45.124Z,4.60
2019-01-29T14:23:13.880Z,4.50
2019-01-29T14:25:42.978Z,4.40
2019-01-29T14:28:12.250Z,4.30
2019-01-29T14:30:41.040Z,4.20
2019-01-29T14:33:09.986Z,4.20
2019-01-29T14:36:54.977Z,4.10
2019-01-29T14:39:42.176Z,4.10
2019-01-29T14:42:10.957Z,4.10
2019-01-29T14:44:43.957Z,4.10
2019-01-29T14:47:13.286Z,4.00
2019-01-29T14:49:42.334Z,4.00
2019-01-29T14:52:11.155Z,4.00
2019-01-29T14:54:40.287Z,3.90
2019-01-29T14:57:09.129Z,3.90
2019-01-29T14:59:38.026Z,3.90
2019-01-29T15:02:06.855Z,3.80
2019-01-29T15:04:35.599Z,3.80
2019-01-29T15:07:04.617Z,3.80
2019-01-29T15:09:33.592Z,3.70
2019-01-29T15:12:02.717Z,3.60
2019-01-29T15:14:31.523Z,3.70
2019-01-29T15:17:18.404Z,3.70
2019-01-29T15:19:47.232Z,3.70
2019-01-29T15:22:16.085Z,3.70
2019-01-29T15:24:45.167Z,3.70
2019-01-29T15:27:14.023Z,3.70
2019-01-29T15:29:43.002Z,3.70
2019-01-29T15:32:11.943Z,3.60
2019-01-29T15:34:41.041Z,3.60
2019-01-29T15:37:09.800Z,3.60
2019-01-29T15:39:38.641Z,3.60
2019-01-29T15:42:07.541Z,3.60
2019-01-29T15:44:36.418Z,3.60
2019-01-29T15:47:05.307Z,3.60
2019-01-29T15:49:34.703Z,3.60
2019-01-29T15:52:03.532Z,3.60
2019-01-29T15:54:32.302Z,3.50
2019-01-29T15:57:01.262Z,3.60
2019-01-29T15:59:31.030Z,3.60
2019-01-29T16:01:59.827Z,3.50
2019-01-29T16:04:28.576Z,3.50
2019-01-29T16:06:57.315Z,3.50
2019-01-29T16:09:26.305Z,3.40
2019-01-29T16:11:55.392Z,3.30
2019-01-29T16:14:24.125Z,3.40
2019-01-29T16:16:52.938Z,3.40
2019-01-29T16:19:21.799Z,3.30
2019-01-29T16:21:51.388Z,3.20
2019-01-29T16:24:20.683Z,3.20
2019-01-29T16:26:49.775Z,3.20
2019-01-29T16:29:18.669Z,3.20
2019-01-29T16:31:47.487Z,3.20
2019-01-29T16:34:16.251Z,3.20
2019-01-29T16:36:45.143Z,3.10
2019-01-29T16:39:13.890Z,3.10
2019-01-29T16:41:42.674Z,3.00
2019-01-29T16:44:11.569Z,3.00
2019-01-29T16:46:40.864Z,3.00
2019-01-29T16:49:09.863Z,3.00
2019-01-29T16:51:42.209Z,3.10
2019-01-29T16:54:09.644Z,3.10
2019-01-29T16:56:38.808Z,3.00
2019-01-29T16:59:08.024Z,3.00
2019-01-29T17:01:37.624Z,3.00
2019-01-29T17:04:06.460Z,3.00
2019-01-29T17:06:35.417Z,3.00
2019-01-29T17:09:07.812Z,3.00
2019-01-29T17:11:36.692Z,3.00
2019-01-29T17:14:05.862Z,2.90
2019-01-29T17:16:34.841Z,2.90
2019-01-29T17:19:04.610Z,2.80
2019-01-29T17:21:33.678Z,2.70
2019-01-29T17:24:02.836Z,2.70
2019-01-29T17:26:31.992Z,2.70
2019-01-29T17:29:01.358Z,2.60
2019-01-29T17:31:30.136Z,2.50
2019-01-29T17:34:00.213Z,2.40
2019-01-29T17:36:29.028Z,2.30
2019-01-29T17:38:57.772Z,2.20
2019-01-29T17:41:26.947Z,2.10
2019-01-29T17:43:56.216Z,2.10
2019-01-29T17:46:25.596Z,2.10
2019-01-29T17:48:54.683Z,2.00
2019-01-29T17:51:23.807Z,1.90
2019-01-29T17:53:52.727Z,1.80
2019-01-29T17:56:21.499Z,1.80
2019-01-29T17:58:50.404Z,1.70
2019-01-29T18:01:19.472Z,1.70
2019-01-29T18:03:48.569Z,1.60
2019-01-29T18:06:17.763Z,1.60
2019-01-29T18:08:49.847Z,1.60
2019-01-29T18:11:17.592Z,1.50
2019-01-29T18:13:47.134Z,1.50
2019-01-29T18:16:16.609Z,1.40
2019-01-29T18:18:45.433Z,1.50
2019-01-29T18:21:14.284Z,1.50
2019-01-29T18:23:43.359Z,1.40
2019-01-29T18:26:14.532Z,1.30
2019-01-29T18:28:43.689Z,1.30
2019-01-29T18:31:12.653Z,1.20
2019-01-29T18:33:41.538Z,1.20
2019-01-29T18:36:11.120Z,1.20
2019-01-29T18:38:40.821Z,1.20
2019-01-29T18:41:09.697Z,1.10
2019-01-29T18:43:38.863Z,1.20
2019-01-29T18:46:07.962Z,1.20
2019-01-29T18:48:43.906Z,1.20
2019-01-29T18:51:13.116Z,1.20
2019-01-29T18:53:44.789Z,1.20
2019-01-29T18:56:13.530Z,1.10
2019-01-29T18:58:42.510Z,1.10
2019-01-29T19:01:12.193Z,1.10
2019-01-29T19:03:41.115Z,1.10
2019-01-29T19:06:10.079Z,1.10
2019-01-29T19:08:39.172Z,1.10
2019-01-29T19:11:08.004Z,1.00
2019-01-29T19:13:36.945Z,1.00
2019-01-29T19:16:05.776Z,1.00
2019-01-29T19:18:34.636Z,1.00
2019-01-29T19:21:03.472Z,1.00
2019-01-29T19:23:32.369Z,0.90
2019-01-29T19:26:01.607Z,0.80
2019-01-29T19:28:30.860Z,0.80
2019-01-29T19:31:00.484Z,0.70
2019-01-29T19:33:29.867Z,0.70
2019-01-29T19:35:58.916Z,0.70
2019-01-29T19:38:27.675Z,0.60
2019-01-29T19:40:56.543Z,0.60
2019-01-29T19:43:25.442Z,0.70
2019-01-29T19:45:54.270Z,0.70
2019-01-29T19:48:23.353Z,0.70
2019-01-29T19:50:52.509Z,0.60
2019-01-29T19:53:21.750Z,0.60
2019-01-29T19:55:50.907Z,0.60
2019-01-29T19:58:19.807Z,0.50
2019-01-29T20:00:48.737Z,0.50
2019-01-29T20:03:18.242Z,0.50
2019-01-29T20:05:47.160Z,0.50
2019-01-29T20:08:16.030Z,0.50
2019-01-29T20:10:45.630Z,0.50
2019-01-29T20:13:15.175Z,0.50
2019-01-29T20:15:44.525Z,0.50
2019-01-29T20:18:13.353Z,0.40
2019-01-29T20:20:42.500Z,0.40
2019-01-29T20:23:11.551Z,0.40
2019-01-29T20:25:40.459Z,0.30
2019-01-29T20:28:09.550Z,0.30
2019-01-29T20:30:39.566Z,0.30
2019-01-29T20:33:08.729Z,0.30
2019-01-29T20:35:37.765Z,0.30
2019-01-29T20:38:06.914Z,0.30
2019-01-29T20:40:35.860Z,0.30
2019-01-29T20:43:04.880Z,0.30
2019-01-29T20:45:34.168Z,0.30
2019-01-29T20:48:03.274Z,0.30
2019-01-29T20:50:34.235Z,0.40
2019-01-29T20:53:03.535Z,0.30
2019-01-29T20:55:32.583Z,0.30
2019-01-29T20:58:01.506Z,0.40
2019-01-29T21:00:32.715Z,0.40
2019-01-29T21:03:01.854Z,0.40
2019-01-29T21:05:30.800Z,0.40
2019-01-29T21:08:00.571Z,0.40
2019-01-29T21:10:29.640Z,0.40
2019-01-29T21:12:58.920Z,0.40
2019-01-29T21:15:37.581Z,0.30
2019-01-29T21:17:58.527Z,0.20
2019-01-29T21:20:29.044Z,0.30
2019-01-29T21:22:58.312Z,0.30
2019-01-29T21:25:27.480Z,0.20
2019-01-29T21:27:56.521Z,0.20
2019-01-29T21:30:33.977Z,0.20
2019-01-29T21:33:02.977Z,0.20
2019-01-29T21:35:31.968Z,0.20
2019-01-29T21:38:01.160Z,0.20
2019-01-29T21:40:30.390Z,0.10
2019-01-29T21:42:59.170Z,0.00
2019-01-29T21:45:28.191Z,0.00
2019-01-29T21:47:58.750Z,0.00
2019-01-29T21:50:29.592Z,0.10
2019-01-29T21:52:58.427Z,0.10
2019-01-29T21:55:27.980Z,0.10
2019-01-29T21:57:57.532Z,0.10
2019-01-29T22:00:29.071Z,0.10
2019-01-29T22:02:57.887Z,0.10
2019-01-29T22:05:27.145Z,0.00
2019-01-29T22:07:57.685Z,0.00
2019-01-29T22:10:27.221Z,0.00
2019-01-29T22:12:56.055Z,0.00
2019-01-29T22:15:25.437Z,0.00
2019-01-29T22:17:54.289Z,0.00
2019-01-29T22:20:23.239Z,0.00
2019-01-29T22:22:52.665Z,0.00
2019-01-29T22:25:22.248Z,0.00
2019-01-29T22:27:51.513Z,0.00
2019-01-29T22:30:26.053Z,-0.10
2019-01-29T22:32:54.885Z,-0.10
2019-01-29T22:35:23.829Z,-0.20
2019-01-29T22:37:53.058Z,-0.20
2019-01-29T22:40:23.774Z,-0.10
2019-01-29T22:42:53.472Z,-0.10
2019-01-29T22:45:22.516Z,-0.10
2019-01-29T22:47:51.379Z,-0.10
2019-01-29T22:50:31.528Z,-0.20
2019-01-29T22:53:00.917Z,-0.20
2019-01-29T22:55:30.112Z,-0.20
2019-01-29T22:57:59.318Z,-0.20
2019-01-29T23:00:52.940Z,-0.30
2019-01-29T23:03:24.408Z,-0.20
2019-01-29T23:05:57.788Z,-0.20
2019-01-29T23:08:26.927Z,-0.30
2019-01-29T23:10:57.345Z,-0.30
2019-01-29T23:13:26.249Z,-0.30
2019-01-29T23:15:55.155Z,-0.30
2019-01-29T23:18:24.004Z,-0.30
2019-01-29T23:20:52.770Z,-0.30
2019-01-29T23:23:22.282Z,-0.30
2019-01-29T23:25:51.131Z,-0.30
2019-01-29T23:28:19.942Z,-0.30
2019-01-29T23:30:48.774Z,-0.30
2019-01-29T23:33:17.978Z,-0.30
2019-01-29T23:35:47.168Z,-0.30
2019-01-29T23:38:15.952Z,-0.30
2019-01-29T23:40:44.728Z,-0.30
2019-01-29T23:43:13.531Z,-0.30
2019-01-29T23:45:42.315Z,-0.30
2019-01-29T23:48:11.411Z,-0.30
2019-01-29T23:50:40.185Z,-0.30
2019-01-29T23:53:09.181Z,-0.30
2019-01-29T23:55:37.979Z,-0.30
2019-01-29T23:58:06.918Z,-0.30
